Terminal Aerodrome Forecast
Issued by NWS

Home | Current Version | Previous Version | Text Only | Print | Product List | Glossary On
Versions: 1 2 3 4 5 6 7 8 9 10 11 12 13 14 15 16 17 18 19 20 21 22 23 24 25 26 27 28 29 30 31 32 33 34 35 36
000
FTAK31 PAFA 301720
TAFASC
TAF
PASC 301720Z 3018/3118 03008KT 5SM BR VCSH BKN007 OVC015
     FM302000 04010KT 5SM BR BKN015 OVC025
     FM310300 33012KT 6SM BR BKN010 OVC020
     FM310900 30010KT 4SM BR OVC008=

USA.gov is the U.S. government's official web portal to all federal, state and local government web resources and services.